Minnehaha Springs, West Virginia
Current Conditions -  °F | °C
As of 8:55 AM on Wednesday 26 Nov 2014 (Local Time) from KHSP Reporting Station
Moderate Snow Moderate Snow  
Wind Chill: 27°   Ceiling: 200
Heat Index: 32°   Visibility: 0.25mi
Dew Point: 32°   Wind: 5mph
Humidity: 100%   Direction: 50°NE
Pressure: 29.91"   Gusts: NA
Location:  38.2213°N, 80.0565°W
Report Text: KHSP 261355Z AUTO 05004KT 1/4SM SN OVC002 00/00 A2991 RMK AO2 P0004 T10021002
Loading
Personal Weather Stations






























Interactive Weather Map New forecast layout! Learn more

10-Day Weather Forecast

Advertisements
Track Severe Weather on mobile